Airport View

Enter AWOS ICAO identifier for current METAR.

ex. KFNL

KACT 221751Z 00000KT 10SM CLR 36/18 A3000 RMK AO2 SLP151 T03560183 10361 20244 58009

22 Jul 2019 18:08

Phone: 254-759-3065

Other Area AWOS: KCNW - KPWG - KTPL - KINJ

TAF KACT 221725Z 2218/2318 27008KT P6SM SCT050 FM222100 32011KT P6SM VCTS SCT050CB FM230000 01015KT P6SM FEW250